sensor_id;sensor_type;location;lat;lon;timestamp;P1;durP1;ratioP1;P2;durP2;ratioP2
6095;SDS011;25081;42.698;23.298;2023-08-30T00:02:08;8.07;;;6.27;;
6095;SDS011;25081;42.698;23.298;2023-08-30T00:04:19;8.73;;;6.43;;
6095;SDS011;25081;42.698;23.298;2023-08-30T00:06:29;6.33;;;5.20;;
6095;SDS011;25081;42.698;23.298;2023-08-30T00:08:40;6.70;;;5.50;;
6095;SDS011;25081;42.698;23.298;2023-08-30T00:10:51;6.13;;;4.63;;
6095;SDS011;25081;42.698;23.298;2023-08-30T00:13:01;8.10;;;5.43;;
6095;SDS011;25081;42.698;23.298;2023-08-30T00:15:12;7.33;;;4.93;;
6095;SDS011;25081;42.698;23.298;2023-08-30T00:17:23;5.97;;;4.73;;
6095;SDS011;25081;42.698;23.298;2023-08-30T00:19:33;5.53;;;4.47;;
6095;SDS011;25081;42.698;23.298;2023-08-30T00:21:44;7.23;;;5.23;;
6095;SDS011;25081;42.698;23.298;2023-08-30T00:23:54;8.27;;;4.97;;
6095;SDS011;25081;42.698;23.298;2023-08-30T00:26:05;9.03;;;4.80;;
6095;SDS011;25081;42.698;23.298;2023-08-30T00:28:15;8.33;;;4.93;;
6095;SDS011;25081;42.698;23.298;2023-08-30T00:30:26;5.97;;;4.83;;
6095;SDS011;25081;42.698;23.298;2023-08-30T00:32:37;8.07;;;4.87;;
6095;SDS011;25081;42.698;23.298;2023-08-30T00:34:49;6.47;;;5.10;;
6095;SDS011;25081;42.698;23.298;2023-08-30T00:37:00;10.23;;;5.90;;
6095;SDS011;25081;42.698;23.298;2023-08-30T00:39:10;9.23;;;5.63;;
6095;SDS011;25081;42.698;23.298;2023-08-30T00:41:21;10.70;;;4.93;;
6095;SDS011;25081;42.698;23.298;2023-08-30T00:43:32;6.53;;;5.50;;
6095;SDS011;25081;42.698;23.298;2023-08-30T00:45:42;9.20;;;4.63;;
6095;SDS011;25081;42.698;23.298;2023-08-30T00:47:52;5.00;;;4.50;;
6095;SDS011;25081;42.698;23.298;2023-08-30T00:50:03;6.60;;;4.83;;
6095;SDS011;25081;42.698;23.298;2023-08-30T00:52:15;6.03;;;4.50;;
6095;SDS011;25081;42.698;23.298;2023-08-30T00:54:25;7.13;;;5.50;;
6095;SDS011;25081;42.698;23.298;2023-08-30T00:56:36;9.13;;;4.80;;
6095;SDS011;25081;42.698;23.298;2023-08-30T00:58:46;8.53;;;4.50;;
6095;SDS011;25081;42.698;23.298;2023-08-30T01:00:57;5.97;;;4.97;;
6095;SDS011;25081;42.698;23.298;2023-08-30T01:03:07;7.00;;;4.70;;
6095;SDS011;25081;42.698;23.298;2023-08-30T01:05:18;6.57;;;4.20;;
6095;SDS011;25081;42.698;23.298;2023-08-30T01:07:28;11.30;;;5.17;;
6095;SDS011;25081;42.698;23.298;2023-08-30T01:09:38;7.93;;;4.73;;
6095;SDS011;25081;42.698;23.298;2023-08-30T01:11:50;5.93;;;4.47;;
6095;SDS011;25081;42.698;23.298;2023-08-30T01:14:00;6.40;;;4.70;;
6095;SDS011;25081;42.698;23.298;2023-08-30T01:16:10;7.20;;;4.67;;
6095;SDS011;25081;42.698;23.298;2023-08-30T01:18:21;7.13;;;4.17;;
6095;SDS011;25081;42.698;23.298;2023-08-30T01:20:31;6.30;;;4.80;;
6095;SDS011;25081;42.698;23.298;2023-08-30T01:22:45;6.00;;;4.73;;
6095;SDS011;25081;42.698;23.298;2023-08-30T01:24:58;5.93;;;4.73;;
6095;SDS011;25081;42.698;23.298;2023-08-30T01:27:09;6.17;;;4.53;;
6095;SDS011;25081;42.698;23.298;2023-08-30T01:29:19;6.57;;;4.93;;
6095;SDS011;25081;42.698;23.298;2023-08-30T01:31:29;7.90;;;5.20;;
6095;SDS011;25081;42.698;23.298;2023-08-30T01:33:40;5.37;;;4.40;;
6095;SDS011;25081;42.698;23.298;2023-08-30T01:35:52;6.00;;;4.10;;
6095;SDS011;25081;42.698;23.298;2023-08-30T01:38:01;6.30;;;4.40;;
6095;SDS011;25081;42.698;23.298;2023-08-30T01:40:12;6.53;;;5.03;;
6095;SDS011;25081;42.698;23.298;2023-08-30T01:42:22;4.80;;;4.13;;
6095;SDS011;25081;42.698;23.298;2023-08-30T01:44:33;8.40;;;4.67;;
6095;SDS011;25081;42.698;23.298;2023-08-30T01:46:43;5.50;;;3.80;;
6095;SDS011;25081;42.698;23.298;2023-08-30T01:48:54;4.47;;;3.90;;
6095;SDS011;25081;42.698;23.298;2023-08-30T01:51:04;4.67;;;3.63;;
6095;SDS011;25081;42.698;23.298;2023-08-30T01:53:15;7.00;;;4.90;;
6095;SDS011;25081;42.698;23.298;2023-08-30T01:55:25;6.73;;;3.80;;
6095;SDS011;25081;42.698;23.298;2023-08-30T01:57:35;5.20;;;4.17;;
6095;SDS011;25081;42.698;23.298;2023-08-30T01:59:46;5.77;;;4.70;;
6095;SDS011;25081;42.698;23.298;2023-08-30T02:01:56;5.53;;;4.07;;
6095;SDS011;25081;42.698;23.298;2023-08-30T02:04:07;6.60;;;4.77;;
6095;SDS011;25081;42.698;23.298;2023-08-30T02:06:20;5.20;;;3.70;;
6095;SDS011;25081;42.698;23.298;2023-08-30T02:08:32;6.03;;;4.50;;
6095;SDS011;25081;42.698;23.298;2023-08-30T02:10:44;5.70;;;4.23;;
6095;SDS011;25081;42.698;23.298;2023-08-30T02:12:54;6.20;;;5.10;;
6095;SDS011;25081;42.698;23.298;2023-08-30T02:15:05;4.83;;;4.20;;
6095;SDS011;25081;42.698;23.298;2023-08-30T02:17:16;5.63;;;4.57;;
6095;SDS011;25081;42.698;23.298;2023-08-30T02:19:26;6.80;;;5.00;;
6095;SDS011;25081;42.698;23.298;2023-08-30T02:21:40;5.60;;;3.63;;
6095;SDS011;25081;42.698;23.298;2023-08-30T02:23:50;5.47;;;4.13;;
6095;SDS011;25081;42.698;23.298;2023-08-30T02:26:01;7.77;;;5.23;;
6095;SDS011;25081;42.698;23.298;2023-08-30T02:28:12;7.30;;;5.10;;
6095;SDS011;25081;42.698;23.298;2023-08-30T02:30:22;7.27;;;5.23;;
6095;SDS011;25081;42.698;23.298;2023-08-30T02:32:33;6.33;;;4.57;;
6095;SDS011;25081;42.698;23.298;2023-08-30T02:34:43;7.07;;;5.97;;
6095;SDS011;25081;42.698;23.298;2023-08-30T02:36:54;9.57;;;5.03;;
6095;SDS011;25081;42.698;23.298;2023-08-30T02:39:04;6.80;;;4.90;;
6095;SDS011;25081;42.698;23.298;2023-08-30T02:41:15;5.23;;;4.70;;
6095;SDS011;25081;42.698;23.298;2023-08-30T02:43:25;7.00;;;4.40;;
6095;SDS011;25081;42.698;23.298;2023-08-30T02:45:36;7.60;;;4.97;;
6095;SDS011;25081;42.698;23.298;2023-08-30T02:47:47;8.30;;;5.20;;
6095;SDS011;25081;42.698;23.298;2023-08-30T02:49:57;6.97;;;4.60;;
6095;SDS011;25081;42.698;23.298;2023-08-30T02:52:07;6.97;;;4.77;;
6095;SDS011;25081;42.698;23.298;2023-08-30T02:54:18;5.70;;;4.50;;
6095;SDS011;25081;42.698;23.298;2023-08-30T02:56:29;5.77;;;4.73;;
6095;SDS011;25081;42.698;23.298;2023-08-30T02:58:39;7.80;;;4.57;;
6095;SDS011;25081;42.698;23.298;2023-08-30T03:00:50;5.90;;;4.43;;
6095;SDS011;25081;42.698;23.298;2023-08-30T03:03:01;5.73;;;4.63;;
6095;SDS011;25081;42.698;23.298;2023-08-30T03:05:11;7.23;;;5.27;;
6095;SDS011;25081;42.698;23.298;2023-08-30T03:07:22;10.83;;;5.47;;
6095;SDS011;25081;42.698;23.298;2023-08-30T03:09:32;6.97;;;5.30;;
6095;SDS011;25081;42.698;23.298;2023-08-30T03:11:43;5.80;;;5.10;;
6095;SDS011;25081;42.698;23.298;2023-08-30T03:13:54;6.70;;;4.57;;
6095;SDS011;25081;42.698;23.298;2023-08-30T03:16:10;5.60;;;4.87;;
6095;SDS011;25081;42.698;23.298;2023-08-30T03:18:21;8.03;;;5.57;;
6095;SDS011;25081;42.698;23.298;2023-08-30T03:20:31;6.50;;;5.00;;
6095;SDS011;25081;42.698;23.298;2023-08-30T03:22:42;5.37;;;4.67;;
6095;SDS011;25081;42.698;23.298;2023-08-30T03:24:52;10.97;;;8.47;;
6095;SDS011;25081;42.698;23.298;2023-08-30T03:27:03;9.67;;;7.40;;
6095;SDS011;25081;42.698;23.298;2023-08-30T03:29:14;5.93;;;5.27;;
6095;SDS011;25081;42.698;23.298;2023-08-30T03:31:25;19.30;;;11.57;;
6095;SDS011;25081;42.698;23.298;2023-08-30T03:33:35;7.43;;;5.47;;
6095;SDS011;25081;42.698;23.298;2023-08-30T03:35:46;18.27;;;14.43;;
6095;SDS011;25081;42.698;23.298;2023-08-30T03:37:57;9.30;;;6.20;;
6095;SDS011;25081;42.698;23.298;2023-08-30T03:40:08;8.50;;;5.17;;
6095;SDS011;25081;42.698;23.298;2023-08-30T03:42:19;5.27;;;3.67;;
6095;SDS011;25081;42.698;23.298;2023-08-30T03:44:30;5.40;;;4.23;;
6095;SDS011;25081;42.698;23.298;2023-08-30T03:46:40;9.10;;;5.10;;
6095;SDS011;25081;42.698;23.298;2023-08-30T03:48:51;5.30;;;4.07;;
6095;SDS011;25081;42.698;23.298;2023-08-30T03:51:01;7.63;;;4.77;;
6095;SDS011;25081;42.698;23.298;2023-08-30T03:53:12;8.63;;;4.97;;
6095;SDS011;25081;42.698;23.298;2023-08-30T03:55:23;7.20;;;4.57;;
6095;SDS011;25081;42.698;23.298;2023-08-30T03:57:33;6.27;;;4.00;;
6095;SDS011;25081;42.698;23.298;2023-08-30T03:59:44;11.90;;;5.23;;
6095;SDS011;25081;42.698;23.298;2023-08-30T04:01:54;7.43;;;4.80;;
6095;SDS011;25081;42.698;23.298;2023-08-30T04:04:05;7.73;;;4.40;;
6095;SDS011;25081;42.698;23.298;2023-08-30T04:06:16;7.23;;;4.70;;
6095;SDS011;25081;42.698;23.298;2023-08-30T04:08:26;10.30;;;4.70;;
6095;SDS011;25081;42.698;23.298;2023-08-30T04:10:38;6.37;;;5.07;;
6095;SDS011;25081;42.698;23.298;2023-08-30T04:12:48;6.43;;;4.20;;
6095;SDS011;25081;42.698;23.298;2023-08-30T04:14:59;7.33;;;4.60;;
6095;SDS011;25081;42.698;23.298;2023-08-30T04:17:09;7.70;;;4.10;;
6095;SDS011;25081;42.698;23.298;2023-08-30T04:19:20;5.80;;;3.93;;
6095;SDS011;25081;42.698;23.298;2023-08-30T04:21:30;7.70;;;4.07;;
6095;SDS011;25081;42.698;23.298;2023-08-30T04:23:41;8.40;;;4.53;;
6095;SDS011;25081;42.698;23.298;2023-08-30T04:25:51;5.20;;;4.00;;
6095;SDS011;25081;42.698;23.298;2023-08-30T04:28:02;8.47;;;5.17;;
6095;SDS011;25081;42.698;23.298;2023-08-30T04:30:14;6.63;;;4.70;;
6095;SDS011;25081;42.698;23.298;2023-08-30T04:32:24;6.33;;;4.80;;
6095;SDS011;25081;42.698;23.298;2023-08-30T04:34:35;11.33;;;7.10;;
6095;SDS011;25081;42.698;23.298;2023-08-30T04:36:45;12.43;;;7.60;;
6095;SDS011;25081;42.698;23.298;2023-08-30T04:38:56;11.03;;;6.03;;
6095;SDS011;25081;42.698;23.298;2023-08-30T04:41:06;11.40;;;5.10;;
6095;SDS011;25081;42.698;23.298;2023-08-30T04:43:16;5.67;;;3.97;;
6095;SDS011;25081;42.698;23.298;2023-08-30T04:45:27;5.60;;;3.60;;
6095;SDS011;25081;42.698;23.298;2023-08-30T04:47:37;5.10;;;4.27;;
6095;SDS011;25081;42.698;23.298;2023-08-30T04:49:50;4.33;;;3.60;;
6095;SDS011;25081;42.698;23.298;2023-08-30T04:52:01;6.37;;;3.37;;
6095;SDS011;25081;42.698;23.298;2023-08-30T04:54:12;7.70;;;3.30;;
6095;SDS011;25081;42.698;23.298;2023-08-30T04:56:23;8.10;;;3.90;;
6095;SDS011;25081;42.698;23.298;2023-08-30T04:58:33;5.70;;;4.30;;
6095;SDS011;25081;42.698;23.298;2023-08-30T05:00:44;4.63;;;3.40;;
6095;SDS011;25081;42.698;23.298;2023-08-30T05:02:54;5.47;;;3.40;;
6095;SDS011;25081;42.698;23.298;2023-08-30T05:05:05;5.73;;;3.20;;
6095;SDS011;25081;42.698;23.298;2023-08-30T05:07:17;6.03;;;3.13;;
6095;SDS011;25081;42.698;23.298;2023-08-30T05:09:27;5.20;;;3.47;;
6095;SDS011;25081;42.698;23.298;2023-08-30T05:11:38;7.53;;;2.73;;
6095;SDS011;25081;42.698;23.298;2023-08-30T05:13:48;3.90;;;2.50;;
6095;SDS011;25081;42.698;23.298;2023-08-30T05:15:58;4.20;;;2.93;;
6095;SDS011;25081;42.698;23.298;2023-08-30T05:18:09;6.57;;;3.40;;
6095;SDS011;25081;42.698;23.298;2023-08-30T05:20:19;6.73;;;2.90;;
6095;SDS011;25081;42.698;23.298;2023-08-30T05:22:30;4.07;;;2.50;;
6095;SDS011;25081;42.698;23.298;2023-08-30T05:24:40;3.73;;;2.67;;
6095;SDS011;25081;42.698;23.298;2023-08-30T05:26:51;6.20;;;2.80;;
6095;SDS011;25081;42.698;23.298;2023-08-30T05:29:01;6.43;;;3.13;;
6095;SDS011;25081;42.698;23.298;2023-08-30T05:31:12;4.00;;;2.70;;
6095;SDS011;25081;42.698;23.298;2023-08-30T05:33:22;4.90;;;3.07;;
6095;SDS011;25081;42.698;23.298;2023-08-30T05:35:33;4.20;;;2.73;;
6095;SDS011;25081;42.698;23.298;2023-08-30T05:37:43;5.20;;;3.20;;
6095;SDS011;25081;42.698;23.298;2023-08-30T05:39:54;5.27;;;3.20;;
6095;SDS011;25081;42.698;23.298;2023-08-30T05:42:05;7.20;;;3.67;;
6095;SDS011;25081;42.698;23.298;2023-08-30T05:44:15;4.60;;;3.40;;
6095;SDS011;25081;42.698;23.298;2023-08-30T05:46:26;4.47;;;3.13;;
6095;SDS011;25081;42.698;23.298;2023-08-30T05:48:36;5.20;;;2.90;;
6095;SDS011;25081;42.698;23.298;2023-08-30T05:50:47;9.50;;;7.03;;
6095;SDS011;25081;42.698;23.298;2023-08-30T05:52:57;4.33;;;3.43;;
6095;SDS011;25081;42.698;23.298;2023-08-30T05:55:09;11.03;;;4.00;;
6095;SDS011;25081;42.698;23.298;2023-08-30T05:57:19;8.00;;;3.97;;
6095;SDS011;25081;42.698;23.298;2023-08-30T05:59:30;4.17;;;2.63;;
6095;SDS011;25081;42.698;23.298;2023-08-30T06:01:41;5.10;;;2.90;;
6095;SDS011;25081;42.698;23.298;2023-08-30T06:03:51;12.50;;;7.83;;
6095;SDS011;25081;42.698;23.298;2023-08-30T06:06:02;6.70;;;4.83;;
6095;SDS011;25081;42.698;23.298;2023-08-30T06:08:13;10.63;;;6.17;;
6095;SDS011;25081;42.698;23.298;2023-08-30T06:10:24;7.70;;;4.40;;
6095;SDS011;25081;42.698;23.298;2023-08-30T06:12:34;6.30;;;4.80;;
6095;SDS011;25081;42.698;23.298;2023-08-30T06:14:45;4.93;;;3.20;;
6095;SDS011;25081;42.698;23.298;2023-08-30T06:16:55;4.87;;;2.93;;
6095;SDS011;25081;42.698;23.298;2023-08-30T06:19:06;4.90;;;2.90;;
6095;SDS011;25081;42.698;23.298;2023-08-30T06:21:16;4.73;;;3.27;;
6095;SDS011;25081;42.698;23.298;2023-08-30T06:23:26;6.23;;;3.53;;
6095;SDS011;25081;42.698;23.298;2023-08-30T06:25:37;3.70;;;2.80;;
6095;SDS011;25081;42.698;23.298;2023-08-30T06:27:56;3.87;;;3.10;;
6095;SDS011;25081;42.698;23.298;2023-08-30T06:30:07;3.53;;;2.60;;
6095;SDS011;25081;42.698;23.298;2023-08-30T06:32:18;3.33;;;2.77;;
6095;SDS011;25081;42.698;23.298;2023-08-30T06:34:28;4.80;;;3.00;;
6095;SDS011;25081;42.698;23.298;2023-08-30T06:36:39;4.30;;;2.63;;
6095;SDS011;25081;42.698;23.298;2023-08-30T06:38:50;4.87;;;2.83;;
6095;SDS011;25081;42.698;23.298;2023-08-30T06:41:00;4.20;;;2.40;;
6095;SDS011;25081;42.698;23.298;2023-08-30T06:43:11;5.10;;;3.50;;
6095;SDS011;25081;42.698;23.298;2023-08-30T06:45:21;4.30;;;2.87;;
6095;SDS011;25081;42.698;23.298;2023-08-30T06:47:31;3.63;;;2.70;;
6095;SDS011;25081;42.698;23.298;2023-08-30T06:49:42;4.73;;;2.53;;
6095;SDS011;25081;42.698;23.298;2023-08-30T06:51:52;5.80;;;2.70;;
6095;SDS011;25081;42.698;23.298;2023-08-30T06:54:03;4.47;;;2.87;;
6095;SDS011;25081;42.698;23.298;2023-08-30T06:56:14;5.63;;;2.60;;
6095;SDS011;25081;42.698;23.298;2023-08-30T06:58:24;4.77;;;3.80;;
6095;SDS011;25081;42.698;23.298;2023-08-30T07:00:35;5.10;;;3.30;;
6095;SDS011;25081;42.698;23.298;2023-08-30T07:02:45;5.80;;;3.03;;
6095;SDS011;25081;42.698;23.298;2023-08-30T07:04:56;4.30;;;2.97;;
6095;SDS011;25081;42.698;23.298;2023-08-30T07:07:06;4.50;;;2.90;;
6095;SDS011;25081;42.698;23.298;2023-08-30T07:09:17;6.50;;;3.63;;
6095;SDS011;25081;42.698;23.298;2023-08-30T07:11:27;4.83;;;3.43;;
6095;SDS011;25081;42.698;23.298;2023-08-30T07:13:38;3.60;;;2.73;;
6095;SDS011;25081;42.698;23.298;2023-08-30T07:15:48;5.50;;;2.83;;
6095;SDS011;25081;42.698;23.298;2023-08-30T07:17:59;4.73;;;3.00;;
6095;SDS011;25081;42.698;23.298;2023-08-30T07:20:11;8.53;;;2.80;;
6095;SDS011;25081;42.698;23.298;2023-08-30T07:22:21;4.70;;;3.70;;
6095;SDS011;25081;42.698;23.298;2023-08-30T07:24:32;3.60;;;2.63;;
6095;SDS011;25081;42.698;23.298;2023-08-30T07:26:42;5.07;;;2.77;;
6095;SDS011;25081;42.698;23.298;2023-08-30T07:28:53;6.40;;;3.30;;
6095;SDS011;25081;42.698;23.298;2023-08-30T07:31:04;6.43;;;3.40;;
6095;SDS011;25081;42.698;23.298;2023-08-30T07:33:14;4.60;;;3.50;;
6095;SDS011;25081;42.698;23.298;2023-08-30T07:35:25;3.90;;;3.37;;
6095;SDS011;25081;42.698;23.298;2023-08-30T07:37:35;5.30;;;3.70;;
6095;SDS011;25081;42.698;23.298;2023-08-30T07:39:46;5.60;;;3.53;;
6095;SDS011;25081;42.698;23.298;2023-08-30T07:41:56;5.80;;;3.37;;
6095;SDS011;25081;42.698;23.298;2023-08-30T07:44:07;4.30;;;3.13;;
6095;SDS011;25081;42.698;23.298;2023-08-30T07:46:17;3.67;;;2.60;;
6095;SDS011;25081;42.698;23.298;2023-08-30T07:48:28;4.80;;;3.23;;
6095;SDS011;25081;42.698;23.298;2023-08-30T07:50:38;4.10;;;3.13;;
6095;SDS011;25081;42.698;23.298;2023-08-30T07:52:49;4.17;;;3.10;;
6095;SDS011;25081;42.698;23.298;2023-08-30T07:54:59;4.30;;;3.10;;
6095;SDS011;25081;42.698;23.298;2023-08-30T07:57:10;3.93;;;2.57;;
6095;SDS011;25081;42.698;23.298;2023-08-30T07:59:20;4.33;;;2.90;;
6095;SDS011;25081;42.698;23.298;2023-08-30T08:01:30;6.00;;;3.30;;
6095;SDS011;25081;42.698;23.298;2023-08-30T08:03:41;3.27;;;2.60;;
6095;SDS011;25081;42.698;23.298;2023-08-30T08:05:51;4.17;;;2.53;;
6095;SDS011;25081;42.698;23.298;2023-08-30T08:08:02;5.67;;;2.60;;
6095;SDS011;25081;42.698;23.298;2023-08-30T08:10:13;4.10;;;2.77;;
6095;SDS011;25081;42.698;23.298;2023-08-30T08:12:25;4.10;;;2.77;;
6095;SDS011;25081;42.698;23.298;2023-08-30T08:14:35;4.00;;;3.00;;
6095;SDS011;25081;42.698;23.298;2023-08-30T08:16:45;3.90;;;2.97;;
6095;SDS011;25081;42.698;23.298;2023-08-30T08:18:56;4.77;;;2.87;;
6095;SDS011;25081;42.698;23.298;2023-08-30T08:21:07;3.83;;;2.73;;
6095;SDS011;25081;42.698;23.298;2023-08-30T08:23:17;3.80;;;2.43;;
6095;SDS011;25081;42.698;23.298;2023-08-30T08:25:28;4.93;;;2.87;;
6095;SDS011;25081;42.698;23.298;2023-08-30T08:27:38;6.50;;;3.27;;
6095;SDS011;25081;42.698;23.298;2023-08-30T08:29:49;3.30;;;2.57;;
6095;SDS011;25081;42.698;23.298;2023-08-30T08:31:59;5.43;;;3.00;;
6095;SDS011;25081;42.698;23.298;2023-08-30T08:34:10;4.00;;;2.57;;
6095;SDS011;25081;42.698;23.298;2023-08-30T08:36:20;4.70;;;2.50;;
6095;SDS011;25081;42.698;23.298;2023-08-30T08:38:30;3.93;;;2.67;;
6095;SDS011;25081;42.698;23.298;2023-08-30T08:40:41;5.93;;;2.40;;
6095;SDS011;25081;42.698;23.298;2023-08-30T08:42:52;6.00;;;2.67;;
6095;SDS011;25081;42.698;23.298;2023-08-30T08:45:03;3.33;;;2.23;;
6095;SDS011;25081;42.698;23.298;2023-08-30T08:47:14;3.33;;;2.50;;
6095;SDS011;25081;42.698;23.298;2023-08-30T08:49:24;3.23;;;2.40;;
6095;SDS011;25081;42.698;23.298;2023-08-30T08:51:35;3.43;;;2.57;;
6095;SDS011;25081;42.698;23.298;2023-08-30T08:53:46;4.47;;;2.90;;
6095;SDS011;25081;42.698;23.298;2023-08-30T08:55:56;3.27;;;2.30;;
6095;SDS011;25081;42.698;23.298;2023-08-30T08:58:07;3.67;;;2.60;;
6095;SDS011;25081;42.698;23.298;2023-08-30T09:00:17;3.40;;;2.13;;
6095;SDS011;25081;42.698;23.298;2023-08-30T09:02:28;3.80;;;2.33;;
6095;SDS011;25081;42.698;23.298;2023-08-30T09:04:39;3.90;;;2.20;;
6095;SDS011;25081;42.698;23.298;2023-08-30T09:06:49;2.97;;;2.53;;
6095;SDS011;25081;42.698;23.298;2023-08-30T09:09:01;3.80;;;2.67;;
6095;SDS011;25081;42.698;23.298;2023-08-30T09:11:12;7.60;;;2.77;;
6095;SDS011;25081;42.698;23.298;2023-08-30T09:13:22;3.47;;;2.20;;
6095;SDS011;25081;42.698;23.298;2023-08-30T09:15:33;3.17;;;2.30;;
6095;SDS011;25081;42.698;23.298;2023-08-30T09:17:43;3.23;;;2.10;;
6095;SDS011;25081;42.698;23.298;2023-08-30T09:20:04;3.27;;;2.50;;
6095;SDS011;25081;42.698;23.298;2023-08-30T09:22:04;3.70;;;2.90;;
6095;SDS011;25081;42.698;23.298;2023-08-30T09:24:15;2.83;;;2.10;;
6095;SDS011;25081;42.698;23.298;2023-08-30T09:26:25;4.00;;;3.03;;
6095;SDS011;25081;42.698;23.298;2023-08-30T09:28:42;3.23;;;2.47;;
6095;SDS011;25081;42.698;23.298;2023-08-30T09:30:52;2.90;;;2.50;;
6095;SDS011;25081;42.698;23.298;2023-08-30T09:33:03;3.17;;;2.63;;
6095;SDS011;25081;42.698;23.298;2023-08-30T09:35:14;4.30;;;2.60;;
6095;SDS011;25081;42.698;23.298;2023-08-30T09:37:25;4.53;;;3.23;;
6095;SDS011;25081;42.698;23.298;2023-08-30T09:39:35;4.90;;;2.70;;
6095;SDS011;25081;42.698;23.298;2023-08-30T09:41:47;3.67;;;2.53;;
6095;SDS011;25081;42.698;23.298;2023-08-30T09:43:56;4.20;;;3.03;;
6095;SDS011;25081;42.698;23.298;2023-08-30T09:46:07;4.63;;;3.50;;
6095;SDS011;25081;42.698;23.298;2023-08-30T09:48:18;4.83;;;3.17;;
6095;SDS011;25081;42.698;23.298;2023-08-30T09:50:31;4.20;;;2.73;;
6095;SDS011;25081;42.698;23.298;2023-08-30T09:52:41;4.80;;;2.97;;
6095;SDS011;25081;42.698;23.298;2023-08-30T09:54:52;5.93;;;3.53;;
6095;SDS011;25081;42.698;23.298;2023-08-30T09:57:03;6.33;;;3.27;;
6095;SDS011;25081;42.698;23.298;2023-08-30T09:59:14;7.73;;;3.80;;
6095;SDS011;25081;42.698;23.298;2023-08-30T10:01:24;4.60;;;3.47;;
6095;SDS011;25081;42.698;23.298;2023-08-30T10:03:35;5.97;;;3.37;;
6095;SDS011;25081;42.698;23.298;2023-08-30T10:05:45;4.30;;;3.63;;
6095;SDS011;25081;42.698;23.298;2023-08-30T10:07:56;5.70;;;3.80;;
6095;SDS011;25081;42.698;23.298;2023-08-30T10:10:07;4.70;;;3.30;;
6095;SDS011;25081;42.698;23.298;2023-08-30T10:12:20;3.80;;;3.10;;
6095;SDS011;25081;42.698;23.298;2023-08-30T10:14:31;4.87;;;3.70;;
6095;SDS011;25081;42.698;23.298;2023-08-30T10:16:42;4.57;;;3.00;;
6095;SDS011;25081;42.698;23.298;2023-08-30T10:18:53;4.93;;;3.07;;
6095;SDS011;25081;42.698;23.298;2023-08-30T10:21:05;5.33;;;3.70;;
6095;SDS011;25081;42.698;23.298;2023-08-30T10:23:14;3.87;;;3.43;;
6095;SDS011;25081;42.698;23.298;2023-08-30T10:25:26;4.90;;;3.40;;
6095;SDS011;25081;42.698;23.298;2023-08-30T10:27:36;3.60;;;2.90;;
6095;SDS011;25081;42.698;23.298;2023-08-30T10:29:46;6.43;;;3.77;;
6095;SDS011;25081;42.698;23.298;2023-08-30T10:31:57;6.90;;;5.03;;
6095;SDS011;25081;42.698;23.298;2023-08-30T10:34:14;4.33;;;3.37;;
6095;SDS011;25081;42.698;23.298;2023-08-30T10:36:26;4.57;;;3.50;;
6095;SDS011;25081;42.698;23.298;2023-08-30T10:38:35;4.63;;;3.27;;
6095;SDS011;25081;42.698;23.298;2023-08-30T10:40:45;6.07;;;4.03;;
6095;SDS011;25081;42.698;23.298;2023-08-30T10:43:00;4.70;;;3.73;;
6095;SDS011;25081;42.698;23.298;2023-08-30T10:45:11;4.80;;;3.80;;
6095;SDS011;25081;42.698;23.298;2023-08-30T10:47:23;5.30;;;3.50;;
6095;SDS011;25081;42.698;23.298;2023-08-30T10:49:41;4.00;;;3.50;;
6095;SDS011;25081;42.698;23.298;2023-08-30T10:51:55;4.33;;;3.50;;
6095;SDS011;25081;42.698;23.298;2023-08-30T10:54:12;5.07;;;3.53;;
6095;SDS011;25081;42.698;23.298;2023-08-30T10:56:27;5.67;;;3.87;;
6095;SDS011;25081;42.698;23.298;2023-08-30T10:58:42;5.00;;;3.80;;
6095;SDS011;25081;42.698;23.298;2023-08-30T11:00:52;6.00;;;4.43;;
6095;SDS011;25081;42.698;23.298;2023-08-30T11:03:03;7.47;;;3.90;;
6095;SDS011;25081;42.698;23.298;2023-08-30T11:05:14;4.80;;;4.30;;
6095;SDS011;25081;42.698;23.298;2023-08-30T11:07:25;4.07;;;3.53;;
6095;SDS011;25081;42.698;23.298;2023-08-30T11:09:36;8.07;;;4.77;;
6095;SDS011;25081;42.698;23.298;2023-08-30T11:11:47;6.00;;;4.33;;
6095;SDS011;25081;42.698;23.298;2023-08-30T11:14:04;6.00;;;4.10;;
6095;SDS011;25081;42.698;23.298;2023-08-30T11:16:14;10.30;;;3.77;;
6095;SDS011;25081;42.698;23.298;2023-08-30T11:18:30;7.37;;;4.80;;
6095;SDS011;25081;42.698;23.298;2023-08-30T11:20:41;6.77;;;4.17;;
6095;SDS011;25081;42.698;23.298;2023-08-30T11:22:51;5.30;;;4.33;;
6095;SDS011;25081;42.698;23.298;2023-08-30T11:25:02;4.33;;;3.50;;
6095;SDS011;25081;42.698;23.298;2023-08-30T11:27:13;4.63;;;3.90;;
6095;SDS011;25081;42.698;23.298;2023-08-30T11:29:27;5.80;;;3.77;;
6095;SDS011;25081;42.698;23.298;2023-08-30T11:31:37;6.03;;;4.57;;
6095;SDS011;25081;42.698;23.298;2023-08-30T11:33:51;4.57;;;3.60;;
6095;SDS011;25081;42.698;23.298;2023-08-30T11:36:02;4.93;;;3.30;;
6095;SDS011;25081;42.698;23.298;2023-08-30T11:38:14;5.00;;;4.03;;
6095;SDS011;25081;42.698;23.298;2023-08-30T11:40:24;4.30;;;3.60;;
6095;SDS011;25081;42.698;23.298;2023-08-30T11:42:35;5.13;;;4.10;;
6095;SDS011;25081;42.698;23.298;2023-08-30T11:44:45;5.00;;;4.10;;
6095;SDS011;25081;42.698;23.298;2023-08-30T11:46:59;5.10;;;3.67;;
6095;SDS011;25081;42.698;23.298;2023-08-30T11:49:09;5.97;;;4.30;;
6095;SDS011;25081;42.698;23.298;2023-08-30T11:51:20;4.60;;;3.17;;
6095;SDS011;25081;42.698;23.298;2023-08-30T11:53:30;7.20;;;5.13;;
6095;SDS011;25081;42.698;23.298;2023-08-30T11:55:41;4.60;;;3.60;;
6095;SDS011;25081;42.698;23.298;2023-08-30T11:57:51;5.40;;;3.83;;
6095;SDS011;25081;42.698;23.298;2023-08-30T12:00:08;4.07;;;3.27;;
6095;SDS011;25081;42.698;23.298;2023-08-30T12:02:19;4.73;;;3.47;;
6095;SDS011;25081;42.698;23.298;2023-08-30T12:04:30;4.83;;;3.80;;
6095;SDS011;25081;42.698;23.298;2023-08-30T12:06:40;4.50;;;3.37;;
6095;SDS011;25081;42.698;23.298;2023-08-30T12:08:56;4.43;;;3.43;;
6095;SDS011;25081;42.698;23.298;2023-08-30T12:11:16;4.80;;;3.73;;
6095;SDS011;25081;42.698;23.298;2023-08-30T12:13:28;6.13;;;3.67;;
6095;SDS011;25081;42.698;23.298;2023-08-30T12:15:40;5.17;;;3.93;;
6095;SDS011;25081;42.698;23.298;2023-08-30T12:17:50;4.70;;;3.73;;
6095;SDS011;25081;42.698;23.298;2023-08-30T12:20:01;5.50;;;4.40;;
6095;SDS011;25081;42.698;23.298;2023-08-30T12:22:12;4.90;;;3.33;;
6095;SDS011;25081;42.698;23.298;2023-08-30T12:24:22;5.23;;;4.30;;
6095;SDS011;25081;42.698;23.298;2023-08-30T12:26:33;5.33;;;4.00;;
6095;SDS011;25081;42.698;23.298;2023-08-30T12:28:43;5.20;;;3.83;;
6095;SDS011;25081;42.698;23.298;2023-08-30T12:30:53;6.27;;;4.37;;
6095;SDS011;25081;42.698;23.298;2023-08-30T12:33:04;5.90;;;3.87;;
6095;SDS011;25081;42.698;23.298;2023-08-30T12:35:15;7.50;;;4.90;;
6095;SDS011;25081;42.698;23.298;2023-08-30T12:37:25;5.93;;;3.80;;
6095;SDS011;25081;42.698;23.298;2023-08-30T12:39:36;5.47;;;4.20;;
6095;SDS011;25081;42.698;23.298;2023-08-30T12:41:46;6.27;;;4.77;;
6095;SDS011;25081;42.698;23.298;2023-08-30T12:43:57;5.83;;;3.90;;
6095;SDS011;25081;42.698;23.298;2023-08-30T12:46:07;5.70;;;4.03;;
6095;SDS011;25081;42.698;23.298;2023-08-30T12:48:18;6.80;;;4.20;;
6095;SDS011;25081;42.698;23.298;2023-08-30T12:50:29;5.70;;;4.00;;
6095;SDS011;25081;42.698;23.298;2023-08-30T12:52:39;5.70;;;3.63;;
6095;SDS011;25081;42.698;23.298;2023-08-30T12:54:50;5.40;;;3.37;;
6095;SDS011;25081;42.698;23.298;2023-08-30T12:57:00;5.60;;;3.63;;
6095;SDS011;25081;42.698;23.298;2023-08-30T12:59:11;4.83;;;3.70;;
6095;SDS011;25081;42.698;23.298;2023-08-30T13:01:21;5.90;;;3.90;;
6095;SDS011;25081;42.698;23.298;2023-08-30T13:03:32;17.63;;;5.37;;
6095;SDS011;25081;42.698;23.298;2023-08-30T13:05:42;7.57;;;3.83;;
6095;SDS011;25081;42.698;23.298;2023-08-30T13:07:53;6.73;;;4.23;;
6095;SDS011;25081;42.698;23.298;2023-08-30T13:10:04;5.00;;;3.60;;